sensor_id;sensor_type;location;lat;lon;timestamp;P1;durP1;ratioP1;P2;durP2;ratioP2
55728;SDS011;41633;39.720;2.910;2024-03-02T00:00:25;11.98;;;3.83;;
55728;SDS011;41633;39.720;2.910;2024-03-02T00:02:52;12.07;;;3.95;;
55728;SDS011;41633;39.720;2.910;2024-03-02T00:05:19;14.40;;;5.18;;
55728;SDS011;41633;39.720;2.910;2024-03-02T00:07:46;17.52;;;6.85;;
55728;SDS011;41633;39.720;2.910;2024-03-02T00:10:14;12.80;;;6.10;;
55728;SDS011;41633;39.720;2.910;2024-03-02T00:12:42;13.45;;;5.45;;
55728;SDS011;41633;39.720;2.910;2024-03-02T00:17:53;12.80;;;5.78;;
55728;SDS011;41633;39.720;2.910;2024-03-02T00:20:20;16.45;;;4.60;;
55728;SDS011;41633;39.720;2.910;2024-03-02T00:22:47;11.60;;;3.90;;
55728;SDS011;41633;39.720;2.910;2024-03-02T00:25:13;12.38;;;3.83;;
55728;SDS011;41633;39.720;2.910;2024-03-02T00:27:39;12.52;;;3.90;;
55728;SDS011;41633;39.720;2.910;2024-03-02T00:30:37;12.50;;;4.00;;
55728;SDS011;41633;39.720;2.910;2024-03-02T00:32:52;12.93;;;4.13;;
55728;SDS011;41633;39.720;2.910;2024-03-02T00:35:18;13.43;;;4.50;;
55728;SDS011;41633;39.720;2.910;2024-03-02T00:37:45;12.02;;;3.83;;
55728;SDS011;41633;39.720;2.910;2024-03-02T00:40:11;15.68;;;5.93;;
55728;SDS011;41633;39.720;2.910;2024-03-02T00:42:39;16.55;;;9.73;;
55728;SDS011;41633;39.720;2.910;2024-03-02T00:45:08;15.75;;;9.15;;
55728;SDS011;41633;39.720;2.910;2024-03-02T00:47:38;13.70;;;6.35;;
55728;SDS011;41633;39.720;2.910;2024-03-02T00:50:04;12.32;;;4.97;;
55728;SDS011;41633;39.720;2.910;2024-03-02T00:52:31;13.63;;;4.03;;
55728;SDS011;41633;39.720;2.910;2024-03-02T00:54:58;15.70;;;4.15;;
55728;SDS011;41633;39.720;2.910;2024-03-02T00:57:24;12.15;;;3.92;;
55728;SDS011;41633;39.720;2.910;2024-03-02T00:59:51;12.20;;;3.35;;
55728;SDS011;41633;39.720;2.910;2024-03-02T01:07:11;16.10;;;4.85;;
55728;SDS011;41633;39.720;2.910;2024-03-02T01:09:37;11.85;;;3.33;;
55728;SDS011;41633;39.720;2.910;2024-03-02T01:12:03;16.88;;;3.80;;
55728;SDS011;41633;39.720;2.910;2024-03-02T01:14:29;12.52;;;3.63;;
55728;SDS011;41633;39.720;2.910;2024-03-02T01:16:56;12.95;;;3.78;;
55728;SDS011;41633;39.720;2.910;2024-03-02T01:19:22;13.52;;;3.65;;
55728;SDS011;41633;39.720;2.910;2024-03-02T01:21:48;11.95;;;3.70;;
55728;SDS011;41633;39.720;2.910;2024-03-02T01:24:15;11.82;;;4.07;;
55728;SDS011;41633;39.720;2.910;2024-03-02T01:26:41;14.40;;;4.15;;
55728;SDS011;41633;39.720;2.910;2024-03-02T01:29:08;11.25;;;3.63;;
55728;SDS011;41633;39.720;2.910;2024-03-02T01:31:34;14.50;;;3.90;;
55728;SDS011;41633;39.720;2.910;2024-03-02T01:34:00;13.25;;;3.58;;
55728;SDS011;41633;39.720;2.910;2024-03-02T01:36:26;11.13;;;3.20;;
55728;SDS011;41633;39.720;2.910;2024-03-02T01:38:52;11.73;;;3.25;;
55728;SDS011;41633;39.720;2.910;2024-03-02T01:41:18;12.25;;;3.70;;
55728;SDS011;41633;39.720;2.910;2024-03-02T01:43:44;12.38;;;3.25;;
55728;SDS011;41633;39.720;2.910;2024-03-02T01:46:10;13.75;;;3.30;;
55728;SDS011;41633;39.720;2.910;2024-03-02T01:48:36;12.70;;;3.33;;
55728;SDS011;41633;39.720;2.910;2024-03-02T01:51:03;12.38;;;3.10;;
55728;SDS011;41633;39.720;2.910;2024-03-02T01:53:31;12.68;;;3.38;;
55728;SDS011;41633;39.720;2.910;2024-03-02T01:55:57;12.25;;;3.15;;
55728;SDS011;41633;39.720;2.910;2024-03-02T01:58:23;10.00;;;3.03;;
55728;SDS011;41633;39.720;2.910;2024-03-02T02:00:49;13.88;;;3.20;;
55728;SDS011;41633;39.720;2.910;2024-03-02T02:03:15;14.82;;;3.92;;
55728;SDS011;41633;39.720;2.910;2024-03-02T02:05:42;13.32;;;3.25;;
55728;SDS011;41633;39.720;2.910;2024-03-02T02:08:08;13.85;;;3.60;;
55728;SDS011;41633;39.720;2.910;2024-03-02T02:10:34;17.30;;;3.75;;
55728;SDS011;41633;39.720;2.910;2024-03-02T02:15:28;13.73;;;3.43;;
55728;SDS011;41633;39.720;2.910;2024-03-02T02:17:55;13.10;;;3.15;;
55728;SDS011;41633;39.720;2.910;2024-03-02T02:20:21;13.80;;;3.72;;
55728;SDS011;41633;39.720;2.910;2024-03-02T02:23:00;16.55;;;3.55;;
55728;SDS011;41633;39.720;2.910;2024-03-02T02:25:27;19.50;;;4.20;;
55728;SDS011;41633;39.720;2.910;2024-03-02T02:27:53;13.32;;;3.60;;
55728;SDS011;41633;39.720;2.910;2024-03-02T02:30:24;16.20;;;4.25;;
55728;SDS011;41633;39.720;2.910;2024-03-02T02:32:51;14.75;;;3.85;;
55728;SDS011;41633;39.720;2.910;2024-03-02T02:37:43;11.48;;;3.42;;
55728;SDS011;41633;39.720;2.910;2024-03-02T02:40:11;16.20;;;3.85;;
55728;SDS011;41633;39.720;2.910;2024-03-02T02:42:37;15.93;;;3.72;;
55728;SDS011;41633;39.720;2.910;2024-03-02T02:45:04;19.25;;;4.13;;
55728;SDS011;41633;39.720;2.910;2024-03-02T02:47:30;16.20;;;4.35;;
55728;SDS011;41633;39.720;2.910;2024-03-02T02:49:58;13.90;;;4.20;;
55728;SDS011;41633;39.720;2.910;2024-03-02T02:52:24;16.15;;;4.38;;
55728;SDS011;41633;39.720;2.910;2024-03-02T02:54:50;15.25;;;4.90;;
55728;SDS011;41633;39.720;2.910;2024-03-02T02:57:17;17.42;;;4.65;;
55728;SDS011;41633;39.720;2.910;2024-03-02T02:59:43;16.23;;;4.40;;
55728;SDS011;41633;39.720;2.910;2024-03-02T03:02:09;15.02;;;3.88;;
55728;SDS011;41633;39.720;2.910;2024-03-02T03:04:35;16.90;;;4.35;;
55728;SDS011;41633;39.720;2.910;2024-03-02T03:07:02;17.85;;;4.32;;
55728;SDS011;41633;39.720;2.910;2024-03-02T03:09:28;15.23;;;3.92;;
55728;SDS011;41633;39.720;2.910;2024-03-02T03:11:54;14.50;;;4.40;;
55728;SDS011;41633;39.720;2.910;2024-03-02T03:14:20;13.05;;;3.65;;
55728;SDS011;41633;39.720;2.910;2024-03-02T03:16:46;16.73;;;4.32;;
55728;SDS011;41633;39.720;2.910;2024-03-02T03:19:13;17.38;;;4.30;;
55728;SDS011;41633;39.720;2.910;2024-03-02T03:21:39;17.60;;;4.47;;
55728;SDS011;41633;39.720;2.910;2024-03-02T03:24:05;18.10;;;4.22;;
55728;SDS011;41633;39.720;2.910;2024-03-02T03:26:31;16.77;;;4.78;;
55728;SDS011;41633;39.720;2.910;2024-03-02T03:28:58;17.33;;;4.63;;
55728;SDS011;41633;39.720;2.910;2024-03-02T03:31:24;16.23;;;4.15;;
55728;SDS011;41633;39.720;2.910;2024-03-02T03:33:50;17.73;;;4.43;;
55728;SDS011;41633;39.720;2.910;2024-03-02T03:36:16;18.17;;;5.28;;
55728;SDS011;41633;39.720;2.910;2024-03-02T03:38:42;17.98;;;5.10;;
55728;SDS011;41633;39.720;2.910;2024-03-02T03:41:08;17.10;;;4.60;;
55728;SDS011;41633;39.720;2.910;2024-03-02T03:43:35;17.08;;;4.47;;
55728;SDS011;41633;39.720;2.910;2024-03-02T03:46:01;19.75;;;5.22;;
55728;SDS011;41633;39.720;2.910;2024-03-02T03:48:27;21.05;;;5.82;;
55728;SDS011;41633;39.720;2.910;2024-03-02T03:50:56;21.27;;;5.18;;
55728;SDS011;41633;39.720;2.910;2024-03-02T03:55:49;18.63;;;4.85;;
55728;SDS011;41633;39.720;2.910;2024-03-02T03:58:15;20.08;;;5.55;;
55728;SDS011;41633;39.720;2.910;2024-03-02T04:00:43;20.10;;;5.40;;
55728;SDS011;41633;39.720;2.910;2024-03-02T04:03:09;23.17;;;5.72;;
55728;SDS011;41633;39.720;2.910;2024-03-02T04:05:36;22.65;;;5.28;;
55728;SDS011;41633;39.720;2.910;2024-03-02T04:08:02;20.48;;;4.88;;
55728;SDS011;41633;39.720;2.910;2024-03-02T04:10:28;22.27;;;5.43;;
55728;SDS011;41633;39.720;2.910;2024-03-02T04:12:55;20.60;;;5.47;;
55728;SDS011;41633;39.720;2.910;2024-03-02T04:15:21;20.67;;;5.05;;
55728;SDS011;41633;39.720;2.910;2024-03-02T04:17:48;22.13;;;5.05;;
55728;SDS011;41633;39.720;2.910;2024-03-02T04:20:14;19.02;;;5.43;;
55728;SDS011;41633;39.720;2.910;2024-03-02T04:22:40;21.52;;;5.40;;
55728;SDS011;41633;39.720;2.910;2024-03-02T04:25:07;24.02;;;4.78;;
55728;SDS011;41633;39.720;2.910;2024-03-02T04:27:34;21.58;;;5.40;;
55728;SDS011;41633;39.720;2.910;2024-03-02T04:30:00;25.90;;;4.97;;
55728;SDS011;41633;39.720;2.910;2024-03-02T04:32:26;17.58;;;5.10;;
55728;SDS011;41633;39.720;2.910;2024-03-02T04:34:53;22.55;;;5.25;;
55728;SDS011;41633;39.720;2.910;2024-03-02T04:37:19;20.63;;;5.18;;
55728;SDS011;41633;39.720;2.910;2024-03-02T04:39:45;20.92;;;4.93;;
55728;SDS011;41633;39.720;2.910;2024-03-02T04:42:11;26.55;;;5.28;;
55728;SDS011;41633;39.720;2.910;2024-03-02T04:44:37;27.83;;;5.63;;
55728;SDS011;41633;39.720;2.910;2024-03-02T04:47:04;21.75;;;5.50;;
55728;SDS011;41633;39.720;2.910;2024-03-02T04:49:30;20.35;;;4.93;;
55728;SDS011;41633;39.720;2.910;2024-03-02T04:51:56;24.35;;;5.55;;
55728;SDS011;41633;39.720;2.910;2024-03-02T04:54:23;20.38;;;5.22;;
55728;SDS011;41633;39.720;2.910;2024-03-02T04:56:49;18.10;;;5.00;;
55728;SDS011;41633;39.720;2.910;2024-03-02T04:59:18;19.10;;;4.90;;
55728;SDS011;41633;39.720;2.910;2024-03-02T05:01:44;19.92;;;4.97;;
55728;SDS011;41633;39.720;2.910;2024-03-02T05:04:10;19.25;;;4.45;;
55728;SDS011;41633;39.720;2.910;2024-03-02T05:06:40;18.95;;;4.97;;
55728;SDS011;41633;39.720;2.910;2024-03-02T05:09:07;19.38;;;4.65;;
55728;SDS011;41633;39.720;2.910;2024-03-02T05:14:02;16.23;;;4.95;;
55728;SDS011;41633;39.720;2.910;2024-03-02T05:16:28;19.70;;;5.35;;
55728;SDS011;41633;39.720;2.910;2024-03-02T05:18:54;15.98;;;5.05;;
55728;SDS011;41633;39.720;2.910;2024-03-02T05:21:20;18.67;;;4.57;;
55728;SDS011;41633;39.720;2.910;2024-03-02T05:23:47;17.27;;;4.50;;
55728;SDS011;41633;39.720;2.910;2024-03-02T05:26:13;17.33;;;4.70;;
55728;SDS011;41633;39.720;2.910;2024-03-02T05:28:39;19.58;;;4.32;;
55728;SDS011;41633;39.720;2.910;2024-03-02T05:31:05;17.63;;;4.97;;
55728;SDS011;41633;39.720;2.910;2024-03-02T05:33:31;18.27;;;4.65;;
55728;SDS011;41633;39.720;2.910;2024-03-02T05:35:58;17.70;;;4.35;;
55728;SDS011;41633;39.720;2.910;2024-03-02T05:38:24;15.50;;;4.18;;
55728;SDS011;41633;39.720;2.910;2024-03-02T05:40:50;18.83;;;4.57;;
55728;SDS011;41633;39.720;2.910;2024-03-02T05:43:16;14.73;;;4.25;;
55728;SDS011;41633;39.720;2.910;2024-03-02T05:45:49;17.77;;;4.55;;
55728;SDS011;41633;39.720;2.910;2024-03-02T05:48:15;15.85;;;4.30;;
55728;SDS011;41633;39.720;2.910;2024-03-02T05:50:41;15.90;;;4.55;;
55728;SDS011;41633;39.720;2.910;2024-03-02T05:53:07;16.35;;;4.60;;
55728;SDS011;41633;39.720;2.910;2024-03-02T05:55:33;15.02;;;4.07;;
55728;SDS011;41633;39.720;2.910;2024-03-02T05:58:00;14.70;;;4.18;;
55728;SDS011;41633;39.720;2.910;2024-03-02T06:00:32;14.65;;;4.65;;
55728;SDS011;41633;39.720;2.910;2024-03-02T06:05:24;16.38;;;3.95;;
55728;SDS011;41633;39.720;2.910;2024-03-02T06:07:50;16.15;;;4.03;;
55728;SDS011;41633;39.720;2.910;2024-03-02T06:10:16;13.68;;;4.13;;
55728;SDS011;41633;39.720;2.910;2024-03-02T06:12:43;17.63;;;4.75;;
55728;SDS011;41633;39.720;2.910;2024-03-02T06:15:09;13.75;;;4.13;;
55728;SDS011;41633;39.720;2.910;2024-03-02T06:17:36;13.27;;;3.53;;
55728;SDS011;41633;39.720;2.910;2024-03-02T06:20:02;13.43;;;3.88;;
55728;SDS011;41633;39.720;2.910;2024-03-02T06:24:54;13.40;;;4.20;;
55728;SDS011;41633;39.720;2.910;2024-03-02T06:27:21;15.32;;;4.28;;
55728;SDS011;41633;39.720;2.910;2024-03-02T06:29:47;13.32;;;3.58;;
55728;SDS011;41633;39.720;2.910;2024-03-02T06:34:39;14.63;;;4.20;;
55728;SDS011;41633;39.720;2.910;2024-03-02T06:37:05;13.45;;;3.83;;
55728;SDS011;41633;39.720;2.910;2024-03-02T06:39:31;10.60;;;3.70;;
55728;SDS011;41633;39.720;2.910;2024-03-02T06:41:59;15.35;;;3.92;;
55728;SDS011;41633;39.720;2.910;2024-03-02T06:44:25;11.63;;;3.47;;
55728;SDS011;41633;39.720;2.910;2024-03-02T06:46:51;12.10;;;3.45;;
55728;SDS011;41633;39.720;2.910;2024-03-02T06:49:17;14.85;;;3.63;;
55728;SDS011;41633;39.720;2.910;2024-03-02T06:51:44;14.27;;;4.00;;
55728;SDS011;41633;39.720;2.910;2024-03-02T06:54:10;13.90;;;4.45;;
55728;SDS011;41633;39.720;2.910;2024-03-02T06:56:36;12.93;;;4.03;;
55728;SDS011;41633;39.720;2.910;2024-03-02T06:59:04;13.73;;;4.20;;
55728;SDS011;41633;39.720;2.910;2024-03-02T07:01:30;13.77;;;3.90;;
55728;SDS011;41633;39.720;2.910;2024-03-02T07:03:56;15.23;;;4.40;;
55728;SDS011;41633;39.720;2.910;2024-03-02T07:06:22;16.88;;;4.63;;
55728;SDS011;41633;39.720;2.910;2024-03-02T07:08:48;13.65;;;4.55;;
55728;SDS011;41633;39.720;2.910;2024-03-02T07:11:14;14.35;;;3.97;;
55728;SDS011;41633;39.720;2.910;2024-03-02T07:13:40;9.82;;;3.30;;
55728;SDS011;41633;39.720;2.910;2024-03-02T07:16:06;10.60;;;3.40;;
55728;SDS011;41633;39.720;2.910;2024-03-02T07:18:58;18.25;;;4.50;;
55728;SDS011;41633;39.720;2.910;2024-03-02T07:21:26;13.52;;;4.45;;
55728;SDS011;41633;39.720;2.910;2024-03-02T07:23:52;15.00;;;5.95;;
55728;SDS011;41633;39.720;2.910;2024-03-02T07:26:18;13.60;;;4.93;;
55728;SDS011;41633;39.720;2.910;2024-03-02T07:31:10;11.73;;;3.83;;
55728;SDS011;41633;39.720;2.910;2024-03-02T07:33:36;18.00;;;4.47;;
55728;SDS011;41633;39.720;2.910;2024-03-02T07:36:03;13.93;;;3.97;;
55728;SDS011;41633;39.720;2.910;2024-03-02T07:38:29;11.55;;;3.13;;
55728;SDS011;41633;39.720;2.910;2024-03-02T07:40:55;14.40;;;3.65;;
55728;SDS011;41633;39.720;2.910;2024-03-02T07:45:47;13.10;;;3.80;;
55728;SDS011;41633;39.720;2.910;2024-03-02T07:48:14;13.43;;;3.97;;
55728;SDS011;41633;39.720;2.910;2024-03-02T07:50:40;14.10;;;4.18;;
55728;SDS011;41633;39.720;2.910;2024-03-02T07:53:08;18.85;;;5.00;;
55728;SDS011;41633;39.720;2.910;2024-03-02T07:55:34;14.55;;;4.90;;
55728;SDS011;41633;39.720;2.910;2024-03-02T07:58:00;15.00;;;4.32;;
55728;SDS011;41633;39.720;2.910;2024-03-02T08:00:27;12.48;;;4.18;;
55728;SDS011;41633;39.720;2.910;2024-03-02T08:02:53;17.10;;;4.78;;
55728;SDS011;41633;39.720;2.910;2024-03-02T08:07:45;14.15;;;4.68;;
55728;SDS011;41633;39.720;2.910;2024-03-02T08:10:12;14.00;;;4.93;;
55728;SDS011;41633;39.720;2.910;2024-03-02T08:12:38;15.45;;;5.40;;
55728;SDS011;41633;39.720;2.910;2024-03-02T08:15:04;15.02;;;4.82;;
55728;SDS011;41633;39.720;2.910;2024-03-02T08:19:57;15.50;;;5.93;;
55728;SDS011;41633;39.720;2.910;2024-03-02T08:22:23;15.57;;;5.03;;
55728;SDS011;41633;39.720;2.910;2024-03-02T08:24:52;15.20;;;5.43;;
55728;SDS011;41633;39.720;2.910;2024-03-02T08:27:18;15.05;;;4.38;;
55728;SDS011;41633;39.720;2.910;2024-03-02T08:29:44;14.63;;;4.22;;
55728;SDS011;41633;39.720;2.910;2024-03-02T08:32:10;13.40;;;4.25;;
55728;SDS011;41633;39.720;2.910;2024-03-02T08:34:36;14.20;;;3.95;;
55728;SDS011;41633;39.720;2.910;2024-03-02T08:37:03;13.52;;;3.83;;
55728;SDS011;41633;39.720;2.910;2024-03-02T08:39:29;12.68;;;4.00;;
55728;SDS011;41633;39.720;2.910;2024-03-02T08:41:55;10.98;;;3.35;;
55728;SDS011;41633;39.720;2.910;2024-03-02T08:44:21;11.45;;;3.42;;
55728;SDS011;41633;39.720;2.910;2024-03-02T08:46:47;14.05;;;3.55;;
55728;SDS011;41633;39.720;2.910;2024-03-02T08:49:13;11.57;;;3.40;;
55728;SDS011;41633;39.720;2.910;2024-03-02T08:51:40;13.05;;;3.92;;
55728;SDS011;41633;39.720;2.910;2024-03-02T08:54:06;10.73;;;3.95;;
55728;SDS011;41633;39.720;2.910;2024-03-02T08:56:32;13.93;;;4.15;;
55728;SDS011;41633;39.720;2.910;2024-03-02T08:58:58;12.52;;;3.88;;
55728;SDS011;41633;39.720;2.910;2024-03-02T09:01:24;16.17;;;4.18;;
55728;SDS011;41633;39.720;2.910;2024-03-02T09:03:50;14.07;;;3.70;;
55728;SDS011;41633;39.720;2.910;2024-03-02T09:08:43;12.05;;;3.80;;
55728;SDS011;41633;39.720;2.910;2024-03-02T09:11:10;12.27;;;3.00;;
55728;SDS011;41633;39.720;2.910;2024-03-02T09:13:37;11.00;;;2.90;;
55728;SDS011;41633;39.720;2.910;2024-03-02T09:16:03;9.75;;;2.92;;
55728;SDS011;41633;39.720;2.910;2024-03-02T09:18:30;9.95;;;2.75;;
55728;SDS011;41633;39.720;2.910;2024-03-02T09:20:56;11.80;;;3.08;;
55728;SDS011;41633;39.720;2.910;2024-03-02T09:23:22;10.35;;;3.03;;
55728;SDS011;41633;39.720;2.910;2024-03-02T09:25:48;11.20;;;2.90;;
55728;SDS011;41633;39.720;2.910;2024-03-02T09:30:40;11.38;;;3.25;;
55728;SDS011;41633;39.720;2.910;2024-03-02T09:35:32;10.48;;;3.03;;
55728;SDS011;41633;39.720;2.910;2024-03-02T09:40:24;9.55;;;2.75;;
55728;SDS011;41633;39.720;2.910;2024-03-02T09:45:24;10.90;;;3.10;;
55728;SDS011;41633;39.720;2.910;2024-03-02T09:47:51;11.07;;;2.50;;
55728;SDS011;41633;39.720;2.910;2024-03-02T09:52:43;11.45;;;2.53;;
55728;SDS011;41633;39.720;2.910;2024-03-02T09:55:09;10.68;;;2.67;;
55728;SDS011;41633;39.720;2.910;2024-03-02T09:57:37;10.40;;;3.05;;
55728;SDS011;41633;39.720;2.910;2024-03-02T10:02:29;9.13;;;2.75;;
55728;SDS011;41633;39.720;2.910;2024-03-02T10:07:21;11.48;;;2.40;;
55728;SDS011;41633;39.720;2.910;2024-03-02T10:09:48;12.88;;;2.58;;
55728;SDS011;41633;39.720;2.910;2024-03-02T10:12:16;9.70;;;2.40;;
55728;SDS011;41633;39.720;2.910;2024-03-02T10:14:42;9.65;;;2.50;;
55728;SDS011;41633;39.720;2.910;2024-03-02T10:17:10;10.50;;;2.38;;
55728;SDS011;41633;39.720;2.910;2024-03-02T10:19:36;10.73;;;2.72;;
55728;SDS011;41633;39.720;2.910;2024-03-02T10:22:04;9.40;;;2.20;;
55728;SDS011;41633;39.720;2.910;2024-03-02T10:24:37;9.45;;;2.17;;
55728;SDS011;41633;39.720;2.910;2024-03-02T10:27:07;9.07;;;2.25;;
55728;SDS011;41633;39.720;2.910;2024-03-02T10:29:36;11.32;;;2.95;;
55728;SDS011;41633;39.720;2.910;2024-03-02T10:32:03;9.30;;;2.58;;
55728;SDS011;41633;39.720;2.910;2024-03-02T10:34:31;12.20;;;2.20;;
55728;SDS011;41633;39.720;2.910;2024-03-02T10:36:57;8.18;;;1.92;;
55728;SDS011;41633;39.720;2.910;2024-03-02T10:39:24;8.05;;;1.85;;
55728;SDS011;41633;39.720;2.910;2024-03-02T10:41:50;11.23;;;2.00;;
55728;SDS011;41633;39.720;2.910;2024-03-02T10:44:18;10.88;;;2.15;;
55728;SDS011;41633;39.720;2.910;2024-03-02T10:46:45;9.98;;;2.58;;
55728;SDS011;41633;39.720;2.910;2024-03-02T10:49:12;9.75;;;2.72;;
55728;SDS011;41633;39.720;2.910;2024-03-02T10:51:38;9.98;;;3.22;;
55728;SDS011;41633;39.720;2.910;2024-03-02T10:54:04;11.48;;;3.33;;
55728;SDS011;41633;39.720;2.910;2024-03-02T10:56:32;9.63;;;3.28;;
55728;SDS011;41633;39.720;2.910;2024-03-02T10:59:02;10.15;;;3.38;;
55728;SDS011;41633;39.720;2.910;2024-03-02T11:01:29;11.05;;;3.00;;
55728;SDS011;41633;39.720;2.910;2024-03-02T11:03:58;10.20;;;2.58;;
55728;SDS011;41633;39.720;2.910;2024-03-02T11:06:25;10.93;;;2.30;;
55728;SDS011;41633;39.720;2.910;2024-03-02T11:08:52;10.65;;;2.50;;
55728;SDS011;41633;39.720;2.910;2024-03-02T11:11:22;6.78;;;1.80;;
55728;SDS011;41633;39.720;2.910;2024-03-02T11:13:51;8.13;;;1.90;;
55728;SDS011;41633;39.720;2.910;2024-03-02T11:18:48;7.25;;;2.05;;
55728;SDS011;41633;39.720;2.910;2024-03-02T11:21:15;11.35;;;2.40;;
55728;SDS011;41633;39.720;2.910;2024-03-02T11:23:41;10.30;;;1.83;;
55728;SDS011;41633;39.720;2.910;2024-03-02T11:26:17;7.78;;;2.03;;
55728;SDS011;41633;39.720;2.910;2024-03-02T11:28:53;10.05;;;2.05;;
55728;SDS011;41633;39.720;2.910;2024-03-02T11:31:21;9.55;;;1.90;;
55728;SDS011;41633;39.720;2.910;2024-03-02T11:33:47;8.43;;;2.08;;
55728;SDS011;41633;39.720;2.910;2024-03-02T11:36:13;7.78;;;1.65;;
55728;SDS011;41633;39.720;2.910;2024-03-02T11:38:39;8.80;;;1.92;;
55728;SDS011;41633;39.720;2.910;2024-03-02T11:41:12;10.48;;;2.10;;
55728;SDS011;41633;39.720;2.910;2024-03-02T11:43:39;9.20;;;2.03;;
55728;SDS011;41633;39.720;2.910;2024-03-02T11:46:05;8.23;;;1.90;;
55728;SDS011;41633;39.720;2.910;2024-03-02T11:48:35;12.20;;;1.98;;
55728;SDS011;41633;39.720;2.910;2024-03-02T11:51:02;9.30;;;1.88;;
55728;SDS011;41633;39.720;2.910;2024-03-02T11:53:28;8.00;;;1.90;;
55728;SDS011;41633;39.720;2.910;2024-03-02T11:55:57;9.52;;;1.92;;
55728;SDS011;41633;39.720;2.910;2024-03-02T11:58:24;8.95;;;2.00;;
55728;SDS011;41633;39.720;2.910;2024-03-02T12:00:52;8.00;;;1.95;;
55728;SDS011;41633;39.720;2.910;2024-03-02T12:03:18;9.38;;;2.17;;
55728;SDS011;41633;39.720;2.910;2024-03-02T12:05:48;7.97;;;1.90;;
55728;SDS011;41633;39.720;2.910;2024-03-02T12:08:14;7.10;;;1.90;;
55728;SDS011;41633;39.720;2.910;2024-03-02T12:10:40;6.38;;;1.80;;
55728;SDS011;41633;39.720;2.910;2024-03-02T12:13:06;9.38;;;1.85;;
55728;SDS011;41633;39.720;2.910;2024-03-02T12:15:36;9.85;;;2.00;;
55728;SDS011;41633;39.720;2.910;2024-03-02T12:18:03;10.77;;;1.95;;
55728;SDS011;41633;39.720;2.910;2024-03-02T12:20:30;11.05;;;2.10;;
55728;SDS011;41633;39.720;2.910;2024-03-02T12:23:03;9.57;;;2.35;;
55728;SDS011;41633;39.720;2.910;2024-03-02T12:25:30;9.10;;;2.50;;
55728;SDS011;41633;39.720;2.910;2024-03-02T12:27:59;11.77;;;2.75;;
55728;SDS011;41633;39.720;2.910;2024-03-02T12:30:27;8.55;;;2.28;;
55728;SDS011;41633;39.720;2.910;2024-03-02T12:32:54;6.53;;;1.77;;
55728;SDS011;41633;39.720;2.910;2024-03-02T12:35:20;8.80;;;2.20;;
55728;SDS011;41633;39.720;2.910;2024-03-02T12:37:48;9.05;;;2.10;;
55728;SDS011;41633;39.720;2.910;2024-03-02T12:40:15;11.77;;;2.15;;
55728;SDS011;41633;39.720;2.910;2024-03-02T12:42:43;8.60;;;1.80;;
55728;SDS011;41633;39.720;2.910;2024-03-02T12:45:09;9.10;;;2.17;;
55728;SDS011;41633;39.720;2.910;2024-03-02T12:47:36;10.68;;;2.28;;
55728;SDS011;41633;39.720;2.910;2024-03-02T12:50:05;8.00;;;2.13;;
55728;SDS011;41633;39.720;2.910;2024-03-02T12:52:31;14.70;;;2.58;;
55728;SDS011;41633;39.720;2.910;2024-03-02T12:54:58;11.35;;;2.45;;
55728;SDS011;41633;39.720;2.910;2024-03-02T12:57:25;9.27;;;2.10;;
55728;SDS011;41633;39.720;2.910;2024-03-02T13:02:27;9.82;;;2.28;;
55728;SDS011;41633;39.720;2.910;2024-03-02T13:04:54;11.02;;;2.50;;
55728;SDS011;41633;39.720;2.910;2024-03-02T13:07:20;10.48;;;2.83;;
55728;SDS011;41633;39.720;2.910;2024-03-02T13:09:50;8.13;;;2.60;;
55728;SDS011;41633;39.720;2.910;2024-03-02T13:12:16;7.45;;;2.00;;
55728;SDS011;41633;39.720;2.910;2024-03-02T13:14:42;8.68;;;2.05;;
55728;SDS011;41633;39.720;2.910;2024-03-02T13:17:09;8.77;;;2.08;;
55728;SDS011;41633;39.720;2.910;2024-03-02T13:19:35;10.73;;;2.08;;
55728;SDS011;41633;39.720;2.910;2024-03-02T13:22:01;10.27;;;2.33;;
55728;SDS011;41633;39.720;2.910;2024-03-02T13:24:29;7.82;;;2.05;;
55728;SDS011;41633;39.720;2.910;2024-03-02T13:26:55;11.57;;;2.58;;
55728;SDS011;41633;39.720;2.910;2024-03-02T13:29:23;11.30;;;2.75;;
55728;SDS011;41633;39.720;2.910;2024-03-02T13:31:49;8.60;;;2.20;;
55728;SDS011;41633;39.720;2.910;2024-03-02T13:34:16;9.32;;;2.45;;
55728;SDS011;41633;39.720;2.910;2024-03-02T13:36:42;9.43;;;2.10;;
55728;SDS011;41633;39.720;2.910;2024-03-02T13:39:08;9.85;;;2.40;;
55728;SDS011;41633;39.720;2.910;2024-03-02T13:41:35;9.25;;;2.33;;
55728;SDS011;41633;39.720;2.910;2024-03-02T13:44:02;14.80;;;8.43;;
55728;SDS011;41633;39.720;2.910;2024-03-02T13:46:28;15.85;;;7.55;;
55728;SDS011;41633;39.720;2.910;2024-03-02T13:48:54;13.77;;;5.57;;
55728;SDS011;41633;39.720;2.910;2024-03-02T13:51:21;44.88;;;31.85;;
55728;SDS011;41633;39.720;2.910;2024-03-02T13:53:47;27.40;;;17.02;;
55728;SDS011;41633;39.720;2.910;2024-03-02T13:56:13;19.83;;;9.68;;
55728;SDS011;41633;39.720;2.910;2024-03-02T13:58:40;32.53;;;21.67;;
55728;SDS011;41633;39.720;2.910;2024-03-02T14:01:06;60.25;;;44.55;;
55728;SDS011;41633;39.720;2.910;2024-03-02T14:03:32;29.58;;;20.20;;
55728;SDS011;41633;39.720;2.910;2024-03-02T14:05:58;22.73;;;11.27;;
55728;SDS011;41633;39.720;2.910;2024-03-02T14:08:24;14.02;;;7.72;;
55728;SDS011;41633;39.720;2.910;2024-03-02T14:10:50;10.57;;;4.57;;
55728;SDS011;41633;39.720;2.910;2024-03-02T14:13:16;16.90;;;6.05;;
55728;SDS011;41633;39.720;2.910;2024-03-02T14:15:42;12.48;;;3.85;;
55728;SDS011;41633;39.720;2.910;2024-03-02T14:18:09;11.48;;;3.65;;
55728;SDS011;41633;39.720;2.910;2024-03-02T14:20:35;12.27;;;5.07;;
55728;SDS011;41633;39.720;2.910;2024-03-02T14:23:02;10.07;;;3.13;;
55728;SDS011;41633;39.720;2.910;2024-03-02T14:25:29;11.98;;;3.28;;
55728;SDS011;41633;39.720;2.910;2024-03-02T14:27:58;12.00;;;3.70;;
55728;SDS011;41633;39.720;2.910;2024-03-02T14:30:24;10.05;;;2.65;;
55728;SDS011;41633;39.720;2.910;2024-03-02T14:32:53;12.88;;;3.03;;
55728;SDS011;41633;39.720;2.910;2024-03-02T14:35:20;8.43;;;2.75;;
55728;SDS011;41633;39.720;2.910;2024-03-02T14:37:47;13.57;;;4.65;;
55728;SDS011;41633;39.720;2.910;2024-03-02T14:40:13;10.48;;;4.10;;
55728;SDS011;41633;39.720;2.910;2024-03-02T14:42:40;14.73;;;4.38;;
55728;SDS011;41633;39.720;2.910;2024-03-02T14:45:07;13.07;;;5.22;;
55728;SDS011;41633;39.720;2.910;2024-03-02T14:47:33;11.30;;;3.50;;
55728;SDS011;41633;39.720;2.910;2024-03-02T14:50:00;13.63;;;5.05;;
55728;SDS011;41633;39.720;2.910;2024-03-02T14:52:31;11.57;;;3.60;;
55728;SDS011;41633;39.720;2.910;2024-03-02T14:54:57;12.50;;;2.97;;
55728;SDS011;41633;39.720;2.910;2024-03-02T14:57:23;14.00;;;4.35;;
55728;SDS011;41633;39.720;2.910;2024-03-02T14:59:50;13.20;;;3.85;;
55728;SDS011;41633;39.720;2.910;2024-03-02T15:02:16;15.10;;;4.10;;
55728;SDS011;41633;39.720;2.910;2024-03-02T15:04:42;14.52;;;4.00;;
55728;SDS011;41633;39.720;2.910;2024-03-02T15:07:10;15.50;;;4.57;;
55728;SDS011;41633;39.720;2.910;2024-03-02T15:09:36;11.93;;;3.50;;
55728;SDS011;41633;39.720;2.910;2024-03-02T15:12:03;16.05;;;6.18;;
55728;SDS011;41633;39.720;2.910;2024-03-02T15:14:29;11.57;;;3.35;;
55728;SDS011;41633;39.720;2.910;2024-03-02T15:16:55;16.92;;;6.05;;
55728;SDS011;41633;39.720;2.910;2024-03-02T15:21:47;12.60;;;3.65;;
55728;SDS011;41633;39.720;2.910;2024-03-02T15:24:13;14.98;;;3.38;;
55728;SDS011;41633;39.720;2.910;2024-03-02T15:29:05;13.32;;;3.70;;
55728;SDS011;41633;39.720;2.910;2024-03-02T15:33:58;72.38;;;57.30;;
55728;SDS011;41633;39.720;2.910;2024-03-02T15:38:51;61.25;;;50.05;;
55728;SDS011;41633;39.720;2.910;2024-03-02T15:43:43;60.00;;;46.42;;